Time;durP1;ratioP1;P1;durP2;ratioP2;P2;SDS_P1;SDS_P2;PMS_P1;PMS_P2;Temp;Humidity;BMP_temperature;BMP_pressure;BME280_temperature;BME280_humidity;BME280_pressure;Samples;Min_cycle;Max_cycle;Signal;HPM_P1;HPM_P2
2022/03/04 00:00:27;;;;;;;42.03;27.00;;;;;;;9.85;50.72;101083.44;5069018;28;20446;-61
2022/03/04 00:02:55;;;;;;;41.55;27.60;;;;;;;9.88;50.69;101077.22;5072222;28;20094;-61
2022/03/04 00:05:22;;;;;;;41.08;26.70;;;;;;;9.88;50.79;101074.59;5071490;28;20106;-61
2022/03/04 00:07:49;;;;;;;41.50;28.17;;;;;;;9.85;50.96;101080.81;5071946;28;20537;-60
2022/03/04 00:10:15;;;;;;;44.00;27.17;;;;;;;9.83;50.92;101084.44;5072156;28;20040;-61
2022/03/04 00:12:42;;;;;;;42.28;28.15;;;;;;;9.82;50.96;101091.47;5071958;28;20048;-62
2022/03/04 00:15:09;;;;;;;40.60;27.10;;;;;;;9.79;50.89;101084.59;5072132;28;20045;-62
2022/03/04 00:17:35;;;;;;;40.30;25.83;;;;;;;9.80;51.05;101083.69;5071962;28;20036;-61
2022/03/04 00:20:03;;;;;;;40.13;26.38;;;;;;;9.77;51.02;101088.22;5072104;28;20076;-61
2022/03/04 00:22:29;;;;;;;39.05;26.58;;;;;;;9.78;51.05;101089.94;5070981;28;20086;-61
2022/03/04 00:24:56;;;;;;;39.80;27.05;;;;;;;9.75;51.03;101077.81;5071636;28;20043;-61
2022/03/04 00:27:23;;;;;;;40.38;26.35;;;;;;;9.79;50.97;101083.78;5071817;28;20049;-60
2022/03/04 00:29:49;;;;;;;39.83;25.75;;;;;;;9.79;50.94;101082.00;5071900;28;20051;-63
2022/03/04 00:32:16;;;;;;;42.40;26.95;;;;;;;9.74;51.00;101094.47;5071294;28;20735;-61
2022/03/04 00:34:43;;;;;;;37.08;25.73;;;;;;;9.74;50.89;101096.25;5071881;28;20040;-60
2022/03/04 00:37:09;;;;;;;38.17;26.30;;;;;;;9.73;50.75;101091.91;5071030;28;20049;-63
2022/03/04 00:39:36;;;;;;;40.72;26.02;;;;;;;9.74;50.97;101091.84;5071610;28;20423;-61
2022/03/04 00:42:03;;;;;;;40.30;25.73;;;;;;;9.75;50.80;101096.16;5072115;28;20381;-60
2022/03/04 00:44:30;;;;;;;35.83;25.40;;;;;;;9.77;50.67;101093.47;5071762;28;20077;-61
2022/03/04 00:46:56;;;;;;;38.05;24.48;;;;;;;9.78;50.56;101095.16;5071712;28;20052;-61
2022/03/04 00:49:23;;;;;;;38.53;25.80;;;;;;;9.81;50.64;101097.63;5071615;28;20076;-61
2022/03/04 00:51:51;;;;;;;39.42;24.30;;;;;;;9.77;50.49;101093.47;5070951;28;20041;-60
2022/03/04 00:54:17;;;;;;;37.08;24.35;;;;;;;9.77;50.36;101101.31;5071579;28;20090;-61
2022/03/04 00:56:44;;;;;;;34.88;24.05;;;;;;;9.80;50.28;101096.78;5071236;28;20097;-61
2022/03/04 00:59:10;;;;;;;38.10;23.65;;;;;;;9.83;50.07;101097.56;5071868;28;20503;-61
2022/03/04 01:01:37;;;;;;;35.65;23.25;;;;;;;9.87;49.90;101097.34;5071343;28;20067;-61
2022/03/04 01:04:04;;;;;;;34.20;21.85;;;;;;;9.86;49.68;101100.88;5071524;28;20052;-61
2022/03/04 01:06:31;;;;;;;33.72;21.63;;;;;;;9.90;49.40;101097.22;5071386;28;20053;-61
2022/03/04 01:08:58;;;;;;;33.67;21.98;;;;;;;9.91;49.29;101091.03;5070506;28;20501;-61
2022/03/04 01:11:25;;;;;;;34.90;20.75;;;;;;;9.93;49.07;101096.22;5071578;28;20044;-63
2022/03/04 01:13:51;;;;;;;34.17;21.05;;;;;;;9.96;48.88;101096.06;5071176;28;20052;-61
2022/03/04 01:16:18;;;;;;;32.67;20.23;;;;;;;10.00;48.67;101091.50;5071678;28;20504;-60
2022/03/04 01:18:45;;;;;;;31.60;20.42;;;;;;;10.01;48.51;101086.19;5072995;28;20052;-60
2022/03/04 01:21:11;;;;;;;34.45;21.40;;;;;;;10.07;48.47;101091.13;5075589;28;20052;-60
2022/03/04 01:23:38;;;;;;;30.08;20.75;;;;;;;10.06;48.35;101093.84;5075131;28;20044;-61
2022/03/04 01:26:05;;;;;;;33.45;21.80;;;;;;;10.09;48.44;101093.69;5074288;28;20041;-60
2022/03/04 01:28:31;;;;;;;34.40;21.23;;;;;;;10.07;48.30;101091.13;5074013;28;20068;-60
2022/03/04 01:30:59;;;;;;;32.15;20.30;;;;;;;10.08;48.23;101092.84;5075022;28;20107;-61
2022/03/04 01:33:26;;;;;;;33.33;21.02;;;;;;;10.06;48.12;101083.34;5075578;28;20408;-61
2022/03/04 01:35:52;;;;;;;31.02;19.35;;;;;;;10.05;48.00;101085.09;5074871;28;20041;-60
2022/03/04 01:38:19;;;;;;;31.25;19.98;;;;;;;10.06;47.79;101081.56;5074923;28;20049;-60
2022/03/04 01:40:46;;;;;;;30.38;19.83;;;;;;;10.07;47.87;101078.03;5074961;28;20532;-62
2022/03/04 01:43:13;;;;;;;33.13;20.63;;;;;;;10.06;47.74;101085.97;5074006;28;20047;-60
2022/03/04 01:45:40;;;;;;;35.17;20.58;;;;;;;10.10;47.52;101077.03;5075147;28;20110;-61
2022/03/04 01:48:06;;;;;;;32.80;20.67;;;;;;;10.09;47.56;101083.19;5074919;28;20125;-62
2022/03/04 01:50:33;;;;;;;30.20;19.80;;;;;;;10.10;47.59;101079.66;5074979;28;20067;-62
2022/03/04 01:53:00;;;;;;;34.55;20.48;;;;;;;10.06;47.40;101076.31;5074705;28;20102;-61
2022/03/04 01:55:27;;;;;;;32.05;20.02;;;;;;;10.06;47.61;101071.06;5073947;28;20553;-61
2022/03/04 01:57:54;;;;;;;34.35;20.38;;;;;;;10.09;47.49;101070.06;5074556;28;20070;-60
2022/03/04 02:00:21;;;;;;;34.63;21.42;;;;;;;10.13;47.53;101076.84;5073706;28;20040;-61
2022/03/04 02:02:47;;;;;;;36.92;22.15;;;;;;;10.11;47.58;101071.69;5074574;28;20455;-61
2022/03/04 02:05:16;;;;;;;33.08;20.65;;;;;;;10.13;47.43;101074.25;5074497;28;20051;-61
2022/03/04 02:07:43;;;;;;;35.10;21.23;;;;;;;10.16;47.55;101068.84;5074621;28;20110;-61
2022/03/04 02:10:11;;;;;;;32.45;19.88;;;;;;;10.16;47.56;101078.47;5074593;28;20040;-60
2022/03/04 02:12:38;;;;;;;33.95;21.58;;;;;;;10.13;47.80;101071.63;5074477;28;20044;-61
2022/03/04 02:15:06;;;;;;;33.92;21.95;;;;;;;10.11;47.73;101071.69;5074372;28;20056;-63
2022/03/04 02:17:34;;;;;;;30.85;21.00;;;;;;;10.13;47.84;101072.47;5073494;28;20063;-60
2022/03/04 02:20:03;;;;;;;34.63;21.70;;;;;;;10.13;48.11;101063.75;5074301;28;20041;-61
2022/03/04 02:22:31;;;;;;;33.92;21.38;;;;;;;10.13;48.50;101071.63;5074281;28;20127;-60
2022/03/04 02:24:58;;;;;;;35.80;22.20;;;;;;;10.12;48.74;101069.94;5073970;28;20485;-63
2022/03/04 02:27:24;;;;;;;35.92;21.90;;;;;;;10.09;49.67;101068.31;5074156;28;20044;-61
2022/03/04 02:29:51;;;;;;;35.05;21.92;;;;;;;10.08;50.36;101063.13;5072678;28;20117;-61
2022/03/04 02:32:18;;;;;;;36.90;22.85;;;;;;;10.06;50.58;101062.38;5074202;28;20048;-61
2022/03/04 02:34:46;;;;;;;36.72;23.23;;;;;;;10.04;51.24;101066.84;5073211;28;20484;-62
2022/03/04 02:37:14;;;;;;;35.40;22.70;;;;;;;10.02;51.54;101064.28;5074099;28;20440;-62
2022/03/04 02:39:41;;;;;;;36.10;23.50;;;;;;;10.02;52.00;101063.44;5073726;28;20040;-61
2022/03/04 02:42:08;;;;;;;35.25;22.65;;;;;;;9.99;52.50;101064.44;5074069;28;20400;-60
2022/03/04 02:44:34;;;;;;;39.75;23.42;;;;;;;9.97;52.62;101066.28;5073663;28;20048;-61
2022/03/04 02:47:01;;;;;;;37.38;24.60;;;;;;;9.98;52.60;101062.75;5073734;28;20040;-60
2022/03/04 02:49:28;;;;;;;39.55;24.25;;;;;;;9.97;52.66;101061.88;5073875;28;20044;-61
2022/03/04 02:51:55;;;;;;;41.75;25.30;;;;;;;9.95;52.74;101060.25;5072842;28;20041;-60
2022/03/04 02:54:21;;;;;;;37.47;23.73;;;;;;;9.93;52.97;101064.75;5073833;28;20113;-61
2022/03/04 02:56:48;;;;;;;40.42;24.60;;;;;;;9.91;52.87;101067.44;5073583;28;20049;-62
2022/03/04 02:59:14;;;;;;;40.35;24.33;;;;;;;9.91;52.85;101067.44;5073694;28;20055;-60
2022/03/04 03:01:41;;;;;;;40.20;25.75;;;;;;;9.87;53.01;101071.13;5073341;28;20045;-62
2022/03/04 03:04:08;;;;;;;40.00;25.02;;;;;;;9.85;52.99;101075.59;5073832;28;20040;-61
2022/03/04 03:06:35;;;;;;;41.33;25.38;;;;;;;9.81;53.20;101063.56;5073400;28;20094;-61
2022/03/04 03:09:02;;;;;;;40.55;25.55;;;;;;;9.77;53.41;101068.09;5072539;28;20052;-61
2022/03/04 03:11:29;;;;;;;41.55;24.88;;;;;;;9.75;53.72;101071.72;5073327;28;20044;-61
2022/03/04 03:13:56;;;;;;;42.15;25.98;;;;;;;9.73;53.82;101073.56;5073247;28;20040;-60
2022/03/04 03:16:22;;;;;;;41.45;26.77;;;;;;;9.70;53.92;101071.09;5073393;28;20051;-60
2022/03/04 03:18:49;;;;;;;40.38;25.98;;;;;;;9.67;54.23;101064.22;5072907;28;20101;-61
2022/03/04 03:21:16;;;;;;;43.90;26.50;;;;;;;9.66;54.33;101075.63;5073355;28;20041;-62
2022/03/04 03:23:42;;;;;;;41.63;26.70;;;;;;;9.63;54.41;101065.28;5070836;28;20040;-61
2022/03/04 03:26:09;;;;;;;41.03;26.42;;;;;;;9.60;54.49;101071.53;5073018;28;20053;-61
2022/03/04 03:28:36;;;;;;;44.80;27.23;;;;;;;9.55;54.63;101073.53;5072763;28;20057;-60
2022/03/04 03:31:02;;;;;;;41.22;26.55;;;;;;;9.53;54.74;101074.50;5072617;28;20055;-60
2022/03/04 03:33:30;;;;;;;42.15;27.60;;;;;;;9.49;54.82;101073.81;5072893;28;20503;-62
2022/03/04 03:35:57;;;;;;;46.25;28.42;;;;;;;9.48;54.73;101074.72;5072683;28;20090;-61
2022/03/04 03:38:24;;;;;;;42.22;26.52;;;;;;;9.43;54.89;101077.56;5072547;28;20044;-60
2022/03/04 03:40:50;;;;;;;44.60;27.52;;;;;;;9.41;54.77;101076.78;5071676;28;20114;-60
2022/03/04 03:43:37;;;;;;;;;;;;;;;9.41;54.59;101083.81;5062282;28;20053;-61
2022/03/04 03:46:03;;;;;;;48.50;28.30;;;;;;;9.41;54.50;101089.88;5072569;28;19974;-62
2022/03/04 03:48:30;;;;;;;44.58;28.27;;;;;;;9.41;54.50;101087.25;5072395;28;20548;-61
2022/03/04 03:50:57;;;;;;;45.42;27.65;;;;;;;9.38;54.42;101084.75;5072699;28;20044;-61
2022/03/04 03:53:24;;;;;;;43.70;28.90;;;;;;;9.37;54.78;101084.84;5072352;28;20036;-61
2022/03/04 03:55:50;;;;;;;42.00;27.90;;;;;;;9.35;54.86;101092.78;5072402;28;20045;-62
2022/03/04 03:58:17;;;;;;;44.92;28.30;;;;;;;9.31;54.94;101092.06;5071496;28;20166;-61
2022/03/04 04:00:43;;;;;;;45.95;28.33;;;;;;;9.29;55.00;101098.28;5072268;28;20048;-62
2022/03/04 04:03:10;;;;;;;49.17;28.92;;;;;;;9.28;55.14;101092.22;5068996;28;20044;-60
2022/03/04 04:05:37;;;;;;;44.83;28.20;;;;;;;9.29;55.36;101101.78;5068794;28;20082;-61
2022/03/04 04:08:04;;;;;;;46.53;28.27;;;;;;;9.24;55.33;101095.03;5068769;28;20098;-61
2022/03/04 04:10:30;;;;;;;46.08;28.83;;;;;;;9.21;55.59;101100.44;5069091;28;20045;-60
2022/03/04 04:12:57;;;;;;;41.95;27.23;;;;;;;9.15;55.71;101097.16;5068825;28;20048;-61
2022/03/04 04:15:24;;;;;;;49.17;28.63;;;;;;;9.10;55.97;101098.28;5067902;28;20090;-61
2022/03/04 04:17:50;;;;;;;51.05;27.48;;;;;;;9.04;55.95;101094.19;5068868;28;20076;-60
2022/03/04 04:20:17;;;;;;;43.63;27.25;;;;;;;8.95;56.37;101100.66;5069217;28;20044;-60
2022/03/04 04:22:43;;;;;;;44.72;25.92;;;;;;;8.90;56.47;101107.88;5069005;28;20400;-61
2022/03/04 04:25:10;;;;;;;45.50;27.30;;;;;;;8.91;56.37;101104.34;5068733;28;20052;-62
2022/03/04 04:27:37;;;;;;;46.90;28.60;;;;;;;8.95;56.07;101107.66;5068411;28;20041;-60
2022/03/04 04:30:04;;;;;;;44.53;27.30;;;;;;;8.87;56.30;101105.38;5067585;28;20055;-60
2022/03/04 04:32:31;;;;;;;43.70;27.08;;;;;;;8.81;56.38;101106.50;5068905;28;20094;-60
2022/03/04 04:34:58;;;;;;;42.70;27.05;;;;;;;8.78;56.51;101108.41;5068851;28;20481;-61
2022/03/04 04:37:24;;;;;;;43.08;28.30;;;;;;;8.75;56.75;101114.63;5068857;28;20049;-61
2022/03/04 04:39:51;;;;;;;45.63;29.30;;;;;;;8.72;56.76;101114.72;5068427;28;20040;-61
2022/03/04 04:42:17;;;;;;;43.63;26.73;;;;;;;8.69;56.62;101120.09;5068628;28;20122;-61
2022/03/04 04:44:44;;;;;;;42.63;26.50;;;;;;;8.64;56.72;101125.53;5068379;28;20067;-61
2022/03/04 04:47:12;;;;;;;44.67;28.05;;;;;;;8.62;56.80;101122.16;5068150;28;20052;-60
2022/03/04 04:49:39;;;;;;;44.20;28.38;;;;;;;8.58;56.71;101120.59;5068594;28;20049;-61
2022/03/04 04:52:07;;;;;;;43.67;27.45;;;;;;;8.61;56.60;101124.81;5068411;28;20569;-61
2022/03/04 04:54:34;;;;;;;46.45;29.00;;;;;;;8.65;56.69;101119.38;5067571;28;20053;-60
2022/03/04 04:57:01;;;;;;;46.72;28.92;;;;;;;8.71;56.44;101125.28;5068529;28;20082;-60
2022/03/04 04:59:28;;;;;;;45.80;29.10;;;;;;;8.75;56.53;101116.41;5068638;28;20052;-60
2022/03/04 05:01:55;;;;;;;48.45;29.52;;;;;;;8.82;56.13;101128.28;5068374;28;20102;-61
2022/03/04 05:04:22;;;;;;;46.05;27.25;;;;;;;8.85;56.15;101127.28;5066411;28;20036;-60
2022/03/04 05:06:48;;;;;;;50.92;32.25;;;;;;;8.89;55.74;101118.38;5067900;28;20040;-60
2022/03/04 05:09:15;;;;;;;48.33;29.35;;;;;;;8.89;55.79;101113.16;5068565;28;20056;-60
2022/03/04 05:11:42;;;;;;;43.80;28.48;;;;;;;8.86;55.64;101116.75;5068128;28;20072;-61
2022/03/04 05:14:09;;;;;;;45.97;28.23;;;;;;;8.85;55.71;101120.31;5068429;28;20049;-60
2022/03/04 05:16:37;;;;;;;46.53;28.67;;;;;;;8.87;55.54;101105.38;5068228;28;20075;-61
2022/03/04 05:19:04;;;;;;;49.30;29.02;;;;;;;8.87;55.49;101109.78;5068191;28;20044;-61
2022/03/04 05:21:30;;;;;;;46.30;28.98;;;;;;;8.86;55.56;101108.91;5068345;28;20049;-60
2022/03/04 05:24:00;;;;;;;44.58;28.10;;;;;;;8.86;55.35;101114.13;5066921;28;20068;-61
2022/03/04 05:26:27;;;;;;;44.90;27.67;;;;;;;8.87;55.33;101110.59;5068348;28;20044;-62
2022/03/04 05:28:55;;;;;;;43.13;28.48;;;;;;;8.87;55.38;101107.16;5067883;28;20052;-60
2022/03/04 05:31:21;;;;;;;42.38;27.02;;;;;;;8.88;55.36;101117.53;5068120;28;20049;-60
2022/03/04 05:33:49;;;;;;;47.22;29.30;;;;;;;8.89;55.42;101110.53;5068112;28;20548;-60
2022/03/04 05:36:16;;;;;;;41.85;27.45;;;;;;;8.92;55.27;101103.41;5068203;28;20073;-60
2022/03/04 05:38:43;;;;;;;43.72;28.13;;;;;;;8.92;55.34;101119.09;5066899;28;20052;-60
2022/03/04 05:41:10;;;;;;;45.15;27.63;;;;;;;8.88;55.33;101111.47;5068027;28;20204;-61
2022/03/04 05:43:38;;;;;;;50.10;29.08;;;;;;;8.89;55.32;101127.09;5068012;28;20140;-62
2022/03/04 05:46:05;;;;;;;52.72;28.10;;;;;;;8.87;55.48;101128.94;5068154;28;20076;-61
2022/03/04 05:48:32;;;;;;;47.85;26.92;;;;;;;8.91;55.21;101129.66;5067769;28;20080;-60
2022/03/04 05:51:00;;;;;;;44.35;28.50;;;;;;;8.93;55.34;101118.19;5068060;28;20040;-60
2022/03/04 05:53:26;;;;;;;50.13;27.63;;;;;;;8.93;55.21;101127.81;5067867;28;20040;-60
2022/03/04 05:55:53;;;;;;;50.47;27.55;;;;;;;8.92;55.50;101139.22;5067796;28;20067;-61
2022/03/04 05:58:20;;;;;;;46.83;28.90;;;;;;;8.91;55.38;101133.13;5066817;28;20045;-60
2022/03/04 06:00:46;;;;;;;53.88;28.70;;;;;;;8.92;55.27;101133.97;5067095;28;20079;-61
2022/03/04 06:03:13;;;;;;;53.45;28.23;;;;;;;8.94;55.32;101142.63;5066643;28;20071;-60
2022/03/04 06:05:40;;;;;;;46.17;27.88;;;;;;;8.94;55.32;101142.63;5070758;28;20049;-61
2022/03/04 06:08:07;;;;;;;50.83;28.80;;;;;;;8.92;55.26;101144.44;5071207;28;20059;-60
2022/03/04 06:10:33;;;;;;;47.20;28.45;;;;;;;8.90;55.25;101149.75;5071293;28;20554;-60
2022/03/04 06:13:00;;;;;;;47.80;28.30;;;;;;;8.90;55.31;101154.97;5071379;28;20052;-60
2022/03/04 06:15:27;;;;;;;47.80;28.63;;;;;;;8.92;55.43;101157.53;5070293;28;20448;-61
2022/03/04 06:17:54;;;;;;;48.88;29.50;;;;;;;8.94;55.29;101155.72;5070887;28;20047;-60
2022/03/04 06:20:21;;;;;;;48.15;28.95;;;;;;;8.97;55.38;101164.25;5071146;28;20078;-60
2022/03/04 06:22:48;;;;;;;52.08;30.88;;;;;;;8.99;55.31;101165.03;5070867;28;20473;-61
2022/03/04 06:25:15;;;;;;;46.85;29.38;;;;;;;8.99;55.25;101167.66;5070877;28;20099;-61
2022/03/04 06:28:03;;;;;;;47.00;30.02;;;;;;;9.03;54.96;101157.91;5070149;28;20413;-61
2022/03/04 06:30:34;;;;;;;48.47;29.02;;;;;;;9.05;54.68;101169.16;5068493;28;20048;-60
2022/03/04 06:35:46;;;;;;;49.88;30.25;;;;;;;9.12;54.56;101160.13;5065157;28;20056;-58
2022/03/04 06:38:13;;;;;;;50.78;28.83;;;;;;;9.15;54.35;101169.59;5070571;28;20052;-61
2022/03/04 06:40:41;;;;;;;45.45;29.00;;;;;;;9.20;54.39;101164.19;5070638;28;20110;-64
2022/03/04 06:43:08;;;;;;;49.80;29.95;;;;;;;9.21;54.15;101168.50;5070452;28;20055;-67
2022/03/04 06:45:36;;;;;;;53.95;31.48;;;;;;;9.24;54.23;101165.75;5070356;28;20458;-61
2022/03/04 06:48:03;;;;;;;50.95;29.73;;;;;;;9.27;53.84;101171.69;5069521;28;20110;-59
2022/03/04 06:50:30;;;;;;;52.95;32.22;;;;;;;9.30;53.97;101181.19;5070941;28;20087;-59
2022/03/04 06:52:56;;;;;;;41.58;24.17;;;;;;;9.51;54.42;101174.16;5070456;28;20382;-66
2022/03/04 06:55:24;;;;;;;49.50;31.63;;;;;;;9.47;53.99;101183.91;5069702;28;20056;-60
2022/03/04 06:57:51;;;;;;;47.75;29.85;;;;;;;9.50;54.07;101190.78;5070108;28;20052;-60
2022/03/04 07:00:18;;;;;;;50.28;31.45;;;;;;;9.51;54.09;101189.00;5070238;28;20483;-61
2022/03/04 07:02:45;;;;;;;49.22;30.63;;;;;;;9.54;53.75;101194.94;5069361;28;20079;-63
2022/03/04 07:05:12;;;;;;;50.03;31.73;;;;;;;9.54;53.60;101188.88;5070268;28;20048;-60
2022/03/04 07:07:39;;;;;;;52.42;31.90;;;;;;;9.83;53.17;101200.66;5069978;28;20048;-60
2022/03/04 07:10:08;;;;;;;53.17;31.35;;;;;;;9.78;53.07;101198.22;5069522;28;20105;-61
2022/03/04 07:12:38;;;;;;;47.95;31.05;;;;;;;9.82;53.03;101204.19;5069190;28;20441;-63
2022/03/04 07:15:06;;;;;;;51.72;32.35;;;;;;;9.91;52.60;101203.75;5069198;28;20040;-60
2022/03/04 07:17:32;;;;;;;53.30;32.42;;;;;;;9.97;52.33;101203.47;5069085;28;20114;-60
2022/03/04 07:19:59;;;;;;;54.45;31.88;;;;;;;10.08;52.09;101210.84;5068938;28;20044;-59
2022/03/04 07:22:25;;;;;;;57.47;32.25;;;;;;;10.20;51.88;101209.41;5069404;28;20097;-62
2022/03/04 07:24:52;;;;;;;51.42;32.42;;;;;;;10.29;51.52;101208.09;5068354;28;20040;-61
2022/03/04 07:27:19;;;;;;;53.85;33.13;;;;;;;10.36;51.38;101206.06;5069363;28;20420;-60
2022/03/04 07:29:46;;;;;;;58.55;32.25;;;;;;;10.47;50.96;101209.03;5069305;28;20056;-60
2022/03/04 07:32:12;;;;;;;53.97;33.28;;;;;;;10.57;50.65;101201.56;5069466;28;20051;-61
2022/03/04 07:34:39;;;;;;;56.85;33.58;;;;;;;10.66;50.43;101208.13;5069471;28;20040;-59
2022/03/04 07:37:06;;;;;;;58.00;34.85;;;;;;;10.78;50.15;101213.63;5068249;28;20041;-61
2022/03/04 07:39:33;;;;;;;55.40;34.65;;;;;;;10.85;49.90;101198.41;5062605;28;20139;-67
2022/03/04 07:42:01;;;;;;;54.33;32.95;;;;;;;10.97;49.52;101202.19;5072609;28;20113;-60
2022/03/04 07:44:28;;;;;;;52.50;32.08;;;;;;;11.04;49.33;101208.81;5068248;28;20045;-60
2022/03/04 07:46:55;;;;;;;57.75;32.58;;;;;;;11.09;48.77;101214.66;5074487;28;20040;-60
2022/03/04 07:49:21;;;;;;;56.28;33.65;;;;;;;11.13;48.51;101212.75;5071993;28;20048;-60
2022/03/04 07:51:48;;;;;;;53.03;32.75;;;;;;;11.27;48.01;101214.66;5070665;28;20747;-67
2022/03/04 07:54:15;;;;;;;52.42;31.77;;;;;;;11.42;47.75;101215.63;5072572;28;20044;-60
2022/03/04 07:56:41;;;;;;;55.08;31.20;;;;;;;11.41;47.76;101220.06;5070883;28;20230;-63
2022/03/04 07:59:08;;;;;;;53.55;33.55;;;;;;;11.58;47.18;101216.53;5068870;28;20118;-61
2022/03/04 08:01:35;;;;;;;57.83;32.35;;;;;;;11.62;47.29;101216.34;5068706;28;20036;-64
2022/03/04 08:04:05;;;;;;;53.50;33.25;;;;;;;11.77;46.97;101210.28;5068018;28;20049;-63
2022/03/04 08:06:32;;;;;;;58.03;32.25;;;;;;;11.93;46.66;101211.16;5068007;28;20048;-63
2022/03/04 08:08:59;;;;;;;54.45;32.85;;;;;;;12.06;46.44;101207.84;5068326;28;20057;-61
2022/03/04 08:11:27;;;;;;;53.65;32.58;;;;;;;12.13;46.12;101214.47;5068604;28;20045;-61
2022/03/04 08:13:53;;;;;;;55.13;32.45;;;;;;;12.19;45.92;101210.66;5068391;28;20626;-60
2022/03/04 08:16:20;;;;;;;53.08;32.90;;;;;;;12.42;45.42;101212.00;5068263;28;20083;-59
2022/03/04 08:18:47;;;;;;;54.85;32.03;;;;;;;12.58;45.13;101218.09;5066018;28;20485;-61
2022/03/04 08:21:13;;;;;;;36.33;22.63;;;;;;;12.88;44.78;101219.03;5068278;28;20053;-62
2022/03/04 08:23:40;;;;;;;41.05;23.17;;;;;;;13.48;44.32;101218.06;5068312;28;20048;-62
2022/03/04 08:26:07;;;;;;;38.92;23.40;;;;;;;13.87;44.10;101206.00;5067670;28;20067;-67
2022/03/04 08:28:34;;;;;;;52.45;28.92;;;;;;;14.03;43.80;101205.88;5067650;28;20381;-61
2022/03/04 08:31:10;;;;;;;36.72;22.90;;;;;;;14.20;43.55;101202.16;5068173;28;20068;-70
2022/03/04 08:33:43;;;;;;;48.05;27.67;;;;;;;14.33;43.06;101204.00;5068399;28;20048;-62
2022/03/04 08:36:10;;;;;;;47.47;27.90;;;;;;;14.40;42.92;101202.66;5068347;28;20412;-61
2022/03/04 08:38:38;;;;;;;51.60;30.45;;;;;;;14.51;42.37;101202.81;5067468;28;20055;-62
2022/03/04 08:41:05;;;;;;;46.42;26.35;;;;;;;14.30;42.47;101207.69;5067244;28;20389;-62
2022/03/04 08:43:34;;;;;;;48.30;29.77;;;;;;;14.49;41.95;101209.13;5067407;28;20496;-65
2022/03/04 08:46:03;;;;;;;47.60;30.08;;;;;;;14.61;41.29;101208.28;5067624;28;20052;-62
2022/03/04 08:48:29;;;;;;;47.17;28.13;;;;;;;14.80;40.63;101207.94;5067506;28;20457;-65
2022/03/04 08:50:57;;;;;;;45.60;26.35;;;;;;;15.04;40.51;101217.81;5068048;28;20135;-63
2022/03/04 08:53:23;;;;;;;51.55;30.38;;;;;;;15.09;40.11;101210.41;5067925;28;20044;-68
2022/03/04 08:55:50;;;;;;;45.67;28.60;;;;;;;15.05;39.51;101208.94;5067103;28;20048;-61
2022/03/04 08:58:17;;;;;;;33.10;22.25;;;;;;;15.02;38.84;101217.94;5066625;28;20047;-60
2022/03/04 09:00:44;;;;;;;33.63;20.33;;;;;;;15.10;37.27;101217.41;5065057;28;20055;-61
2022/03/04 09:03:11;;;;;;;30.92;18.20;;;;;;;15.10;36.26;101208.66;5073156;28;20044;-63
2022/03/04 09:05:38;;;;;;;32.53;19.05;;;;;;;15.17;34.61;101215.19;5069488;28;20508;-60
2022/03/04 09:08:05;;;;;;;31.75;18.98;;;;;;;15.23;33.62;101213.94;5070138;28;20465;-64
2022/03/04 09:10:32;;;;;;;36.60;20.38;;;;;;;15.33;32.98;101212.34;5071019;28;20098;-60
2022/03/04 09:13:04;;;;;;;31.83;19.92;;;;;;;15.47;32.27;101209.56;5067969;28;20564;-67
2022/03/04 09:15:32;;;;;;;33.35;19.80;;;;;;;15.48;31.93;101208.63;5078226;28;20052;-64
2022/03/04 09:17:59;;;;;;;31.65;20.60;;;;;;;15.70;31.07;101207.09;5072908;28;20063;-61
2022/03/04 09:20:32;;;;;;;31.40;19.83;;;;;;;15.79;30.74;101203.78;5067616;28;20053;-64
2022/03/04 09:22:58;;;;;;;34.53;20.45;;;;;;;15.89;30.44;101198.72;5075503;28;20040;-65
2022/03/04 09:25:27;;;;;;;33.08;20.50;;;;;;;15.99;30.24;101202.41;5067346;28;20048;-66
2022/03/04 09:27:54;;;;;;;33.65;21.27;;;;;;;16.13;29.87;101192.63;5067049;28;20048;-62
2022/03/04 09:30:21;;;;;;;33.53;21.00;;;;;;;16.25;29.90;101196.16;5067091;28;20057;-61
2022/03/04 09:32:48;;;;;;;33.83;21.80;;;;;;;16.44;29.32;101198.28;5067267;28;20047;-68
2022/03/04 09:35:17;;;;;;;35.33;23.05;;;;;;;16.50;29.43;101192.53;5070344;28;20080;-65
2022/03/04 09:37:48;;;;;;;34.90;21.63;;;;;;;16.66;29.11;101194.91;5066828;28;20044;-66
2022/03/04 09:40:15;;;;;;;36.75;21.15;;;;;;;16.83;28.59;101192.78;5069919;28;20500;-60
2022/03/04 09:42:42;;;;;;;39.42;23.67;;;;;;;16.99;28.72;101193.34;5071424;28;20052;-61
2022/03/04 09:45:09;;;;;;;35.95;22.30;;;;;;;17.21;28.33;101191.66;5071231;28;20566;-60
2022/03/04 09:47:36;;;;;;;36.53;23.73;;;;;;;17.32;28.12;101194.34;5070816;28;20048;-62
2022/03/04 09:50:04;;;;;;;35.50;21.58;;;;;;;17.43;28.40;101190.81;5070925;28;20141;-60
2022/03/04 09:52:31;;;;;;;30.05;20.70;;;;;;;17.45;27.68;101203.00;5071176;28;20063;-61
2022/03/04 09:54:58;;;;;;;29.85;20.30;;;;;;;17.44;27.53;101196.00;5070203;28;20071;-68
2022/03/04 09:57:25;;;;;;;30.95;19.52;;;;;;;17.55;27.33;101191.69;5070988;28;20040;-61
2022/03/04 09:59:51;;;;;;;30.40;19.75;;;;;;;17.71;27.09;101188.63;5070641;28;20501;-61
2022/03/04 10:02:19;;;;;;;30.05;20.10;;;;;;;17.87;26.49;101186.44;5071143;28;20048;-68
2022/03/04 10:04:56;;;;;;;28.85;19.40;;;;;;;17.94;26.36;101182.38;5070801;28;20431;-60
2022/03/04 10:07:23;;;;;;;29.33;20.25;;;;;;;17.90;26.33;101186.22;5070919;28;20088;-62
2022/03/04 10:09:50;;;;;;;28.42;20.02;;;;;;;18.11;25.98;101182.81;5070499;28;20051;-60
2022/03/04 10:12:20;;;;;;;32.72;20.02;;;;;;;18.15;25.88;101183.41;5070212;28;20489;-63
2022/03/04 10:14:57;;;;;;;30.60;18.63;;;;;;;18.29;25.42;101175.13;5070627;28;20547;-61
2022/03/04 10:17:30;;;;;;;27.63;18.27;;;;;;;18.46;25.25;101168.41;5070528;28;20045;-61
2022/03/04 10:19:59;;;;;;;27.17;17.48;;;;;;;18.46;25.11;101170.22;5070685;28;20044;-61
2022/03/04 10:22:42;;;;;;;25.08;16.70;;;;;;;18.53;24.66;101168.75;5070698;28;20047;-61
2022/03/04 10:25:24;;;;;;;23.50;15.80;;;;;;;18.72;24.52;101165.38;5070628;28;20044;-61
2022/03/04 10:27:52;;;;;;;23.20;14.38;;;;;;;18.83;24.32;101167.97;5068820;28;20045;-61
2022/03/04 10:30:30;;;;;;;24.23;16.40;;;;;;;18.98;24.00;101167.66;5070153;28;20558;-66
2022/03/04 10:33:09;;;;;;;26.60;18.05;;;;;;;19.04;23.34;101160.00;5070372;28;20051;-60
2022/03/04 10:35:38;;;;;;;27.88;18.63;;;;;;;19.05;23.55;101169.66;5070406;28;20059;-61
2022/03/04 10:38:05;;;;;;;26.50;18.15;;;;;;;19.17;23.12;101161.59;5069991;28;20045;-60
2022/03/04 10:40:43;;;;;;;27.90;18.60;;;;;;;19.30;23.13;101164.03;5070038;28;20059;-61
2022/03/04 10:43:11;;;;;;;28.63;17.88;;;;;;;19.18;23.23;101168.63;5064468;28;20048;-61
2022/03/04 10:45:44;;;;;;;27.85;17.60;;;;;;;19.03;23.25;101168.09;5069595;28;20052;-61
2022/03/04 10:48:12;;;;;;;27.25;18.50;;;;;;;19.13;23.03;101152.22;5068958;28;20142;-60
2022/03/04 10:50:40;;;;;;;26.98;17.55;;;;;;;19.25;22.47;101159.13;5067879;28;20527;-61
2022/03/04 10:53:11;;;;;;;27.10;17.45;;;;;;;19.41;22.69;101150.63;5069348;28;20050;-60
2022/03/04 10:55:44;;;;;;;25.42;17.73;;;;;;;19.55;22.73;101149.41;5070153;28;20052;-61
2022/03/04 10:58:22;;;;;;;25.98;17.35;;;;;;;19.66;22.61;101146.66;5069798;28;20365;-65
2022/03/04 11:00:57;;;;;;;24.30;17.15;;;;;;;19.73;22.42;101141.59;5068859;28;20044;-60
2022/03/04 11:03:27;;;;;;;23.48;16.10;;;;;;;19.80;22.38;101139.25;5069964;28;20048;-60
2022/03/04 11:05:56;;;;;;;25.45;16.77;;;;;;;19.92;21.70;101137.34;5068208;28;20106;-61
2022/03/04 11:08:23;;;;;;;23.88;16.50;;;;;;;19.95;21.78;101137.91;5068429;28;20090;-61
2022/03/04 11:10:51;;;;;;;22.65;15.45;;;;;;;19.95;21.50;101135.25;5068919;28;20055;-61
2022/03/04 11:13:18;;;;;;;21.08;14.63;;;;;;;20.10;21.31;101129.50;5068722;28;20044;-61
2022/03/04 11:15:47;;;;;;;22.40;15.30;;;;;;;20.15;21.55;101135.22;5065757;28;20048;-64
2022/03/04 11:18:17;;;;;;;22.15;14.98;;;;;;;20.11;21.39;101125.84;5067374;28;20063;-61